ABSECON CHANNEL AT ATLANTIC CITY NJ US USGS current weather conditions

sailwx.info

Wind from 210 at 4 knots gusting 6

Air temperature 8.3° C
Dewpoint 5.0° C

Last reported at 2020-Feb-25 05:54 UTC.
Time now 2020-Feb-25 06:29 UTC

Location: N 39°23' W 074°25'.
View on Google Maps.

See reports from other nearby stations

  
Tides and Currents Weather Stations Pressure Air Temp Water Temp Dewpoint Dewpoint Depression Visibility Wind Speed Wind Dir Waves Ship Positions
date/time (UTC)wind fromknots sea level pressurealtimeterstation pressurevisibilityair tempwater tempwave heightnotes
2020-Feb-25 06:00 209 4 gusting 7 8.2
2020-Feb-25 05:54 210 4 gusting 6 8.3
2020-Feb-25 05:48 219 5 gusting 8 8.4
2020-Feb-25 05:42 217 6 gusting 9 8.5
2020-Feb-25 05:36 222 6 gusting 10 8.6
2020-Feb-25 05:30 230 7 gusting 10 8.7
2020-Feb-25 05:24 234 7 gusting 11 8.7
2020-Feb-25 05:18 230 9 gusting 14 8.6
2020-Feb-25 05:12 233 7 gusting 10 8.4
2020-Feb-25 05:06 241 7 gusting 10 8.4
2020-Feb-25 05:00 242 6 gusting 9 8.4
2020-Feb-25 04:54 237 6 gusting 8 8.4
2020-Feb-25 04:48 237 7 gusting 10 8.4
2020-Feb-25 04:42 239 8 gusting 12 8.4
2020-Feb-25 04:36 234 7 gusting 11 8.5
2020-Feb-25 04:30 241 9 gusting 14 8.5
2020-Feb-25 04:24 234 9 gusting 15 8.5
2020-Feb-25 04:18 233 9 gusting 14 8.3
2020-Feb-25 04:12 227 9 gusting 14 8.2
2020-Feb-25 04:06 224 9 gusting 12 8.2
2020-Feb-25 04:00 226 9 gusting 13 8.4
2020-Feb-25 03:54 231 10 gusting 15 8.4
2020-Feb-25 03:48 235 11 gusting 17 8.4
2020-Feb-25 03:42 232 12 gusting 18 8.4
2020-Feb-25 03:36 231 13 gusting 19 8.4
2020-Feb-25 03:30 234 12 gusting 19 8.3
2020-Feb-25 03:24 232 13 gusting 21 8.3
2020-Feb-25 03:18 231 11 gusting 20 8.1
2020-Feb-25 03:12 225 12 gusting 19 8.0
2020-Feb-25 03:06 225 11 gusting 18 8.0
2020-Feb-25 03:00 227 12 gusting 20 8.0
2020-Feb-25 02:54 227 13 gusting 21 8.0
2020-Feb-25 02:48 232 14 gusting 24 8.1
2020-Feb-25 02:42 228 13 gusting 20 8.1
2020-Feb-25 02:36 231 13 gusting 21 8.0
2020-Feb-25 02:30 229 13 gusting 18 7.9
2020-Feb-25 02:24 226 13 gusting 21 7.9
2020-Feb-25 02:18 229 14 gusting 23 8.0
2020-Feb-25 02:12 228 14 gusting 21 8.0
2020-Feb-25 02:06 229 14 gusting 21 8.1
2020-Feb-25 02:00 228 14 gusting 23 8.2
2020-Feb-25 01:54 226 15 gusting 23 8.3
2020-Feb-25 01:48 231 14 gusting 22 8.5
2020-Feb-25 01:42 230 15 gusting 22 8.6
2020-Feb-25 01:36 222 12 gusting 20 8.6
2020-Feb-25 01:30 221 10 gusting 14 8.6
2020-Feb-25 01:24 221 10 gusting 18 8.5
2020-Feb-25 01:18 216 12 gusting 17 8.6
2020-Feb-25 01:12 217 11 gusting 17 8.6
2020-Feb-25 01:06 215 11 gusting 18 8.6
2020-Feb-25 01:00 221 13 gusting 21 8.6
2020-Feb-25 00:54 211 12 gusting 23 8.4
2020-Feb-25 00:48 203 9 gusting 14 8.3
2020-Feb-25 00:42 206 9 gusting 15 8.3
2020-Feb-25 00:36 204 10 gusting 19 8.4
2020-Feb-25 00:30 208 10 gusting 17 8.4
2020-Feb-25 00:24 205 8 gusting 18 8.9
2020-Feb-25 00:18 213 10 gusting 17 9.1
2020-Feb-25 00:12 218 10 gusting 16 9.0
2020-Feb-25 00:06 219 10 gusting 15 8.7
2020-Feb-25 00:00 217 9 gusting 17 8.6
2020-Feb-24 23:54 220 9 gusting 18 8.7
2020-Feb-24 23:48 229 10 gusting 19 8.7
2020-Feb-24 23:42 224 13 gusting 20 8.8
2020-Feb-24 23:36 226 14 gusting 19 8.9
2020-Feb-24 23:30 223 13 gusting 19 8.8
2020-Feb-24 23:24 232 11 gusting 17 8.8
2020-Feb-24 23:18 227 14 gusting 21 9.0
2020-Feb-24 23:12 223 14 gusting 23 9.0
2020-Feb-24 23:06 227 14 gusting 21 8.8
2020-Feb-24 23:00 226 11 gusting 17 8.4
2020-Feb-24 22:54 220 10 gusting 15 8.3
2020-Feb-24 22:48 212 11 gusting 21 8.3
2020-Feb-24 22:42 214 11 gusting 16 8.2
2020-Feb-24 22:36 213 10 gusting 16 8.1
2020-Feb-24 22:30 216 9 gusting 16 8.0
2020-Feb-24 22:24 216 10 gusting 16 8.0
2020-Feb-24 22:18 219 9 gusting 15 7.9
2020-Feb-24 22:12 218 7 gusting 14 7.8
2020-Feb-24 22:06 205 7 gusting 11 7.9
2020-Feb-24 22:00 203 6 gusting 11 7.9
2020-Feb-24 21:54 200 8 gusting 12 8.0
2020-Feb-24 21:48 202 7 gusting 13 8.1
2020-Feb-24 21:42 203 7 gusting 11 8.1
2020-Feb-24 21:36 205 7 gusting 13 8.2
2020-Feb-24 21:30 186 6 gusting 12 8.2
2020-Feb-24 21:24 189 5 gusting 9 8.2
2020-Feb-24 21:18 179 7 gusting 13 8.2
2020-Feb-24 21:12 179 8 gusting 13 8.3
2020-Feb-24 21:06 178 7 gusting 12 8.4
2020-Feb-24 21:00 188 5 gusting 8 8.4
2020-Feb-24 20:54 199 7 gusting 12 8.3
2020-Feb-24 20:48 205 7 gusting 11 8.3
2020-Feb-24 20:42 201 7 gusting 11 8.2
2020-Feb-24 20:36 201 7 gusting 11 8.2
2020-Feb-24 20:30 208 6 gusting 10 8.3
2020-Feb-24 20:24 209 6 gusting 13 8.4
2020-Feb-24 20:18 208 7 gusting 12 8.4
2020-Feb-24 20:12 201 7 gusting 10 8.5
2020-Feb-24 20:06 204 6 gusting 9 8.6
2020-Feb-24 20:00 208 6 gusting 9 8.7
2020-Feb-24 19:54 200 7 gusting 10 8.7
2020-Feb-24 19:48 201 7 gusting 10 8.7
2020-Feb-24 19:42 206 5 gusting 8 8.7
2020-Feb-24 19:36 204 5 gusting 8 8.7
2020-Feb-24 19:30 219 6 gusting 10 8.9
2020-Feb-24 19:24 206 7 gusting 10 9.1
2020-Feb-24 19:12 182 5 gusting 8 9.2
2020-Feb-24 18:54 198 5 gusting 8 8.9
2020-Feb-24 18:36 192 6 gusting 10 8.9
2020-Feb-24 18:00 197 6 gusting 8 9.4
2020-Feb-24 17:54 198 6 gusting 8 9.4
2020-Feb-24 17:48 194 6 gusting 8 9.3
2020-Feb-24 17:42 200 5 gusting 8 9.4
2020-Feb-24 17:36 199 5 gusting 8 9.5
2020-Feb-24 17:30 195 5 gusting 8 9.5
2020-Feb-24 17:24 199 6 gusting 8 9.3
2020-Feb-24 17:18 220 4 gusting 7 9.1
2020-Feb-24 17:12 211 6 gusting 9 8.9
2020-Feb-24 17:06 198 7 gusting 10 8.9
2020-Feb-24 17:00 224 6 gusting 8 8.9
2020-Feb-24 16:54 202 7 gusting 10 8.8
2020-Feb-24 16:48 194 7 gusting 10 8.7
2020-Feb-24 16:42 199 7 gusting 9 8.9
2020-Feb-24 16:36 195 5 gusting 7 9.2
2020-Feb-24 16:30 190 5 gusting 7 9.0
2020-Feb-24 16:24 188 4 gusting 7 8.9
2020-Feb-24 16:18 201 5 gusting 7 8.6
2020-Feb-24 16:12 199 5 gusting 8 8.9
2020-Feb-24 16:06 200 4 gusting 6 9.0
2020-Feb-24 16:00 198 5 gusting 7 9.1
2020-Feb-24 15:54 189 4 gusting 6 9.2
2020-Feb-24 15:48 188 4 gusting 6 9.1
2020-Feb-24 15:42 201 4 gusting 5 9.1
2020-Feb-24 15:36 203 3 gusting 5 9.1
2020-Feb-24 15:30 229 3 gusting 6 9.0
2020-Feb-24 15:24 224 4 gusting 6 8.9
2020-Feb-24 15:18 227 4 gusting 6 8.8
2020-Feb-24 15:12 211 4 gusting 6 8.7
2020-Feb-24 15:06 227 5 gusting 7 8.7
2020-Feb-24 15:00 230 5 gusting 7 8.6
2020-Feb-24 14:54 228 4 gusting 7 8.5
2020-Feb-24 14:48 202 4 gusting 6 8.4
2020-Feb-24 14:42 193 4 gusting 7 8.4
2020-Feb-24 14:36 191 4 gusting 6 8.5
2020-Feb-24 14:30 188 5 gusting 7 8.9
2020-Feb-24 14:24 214 3 gusting 5 9.0
2020-Feb-24 14:18 220 5 gusting 7 9.0
2020-Feb-24 14:06 231 3 gusting 6 9.0
2020-Feb-24 14:00 247 5 gusting 8 8.8
2020-Feb-24 13:54 262 5 gusting 7 8.6
2020-Feb-24 13:48 263 4 gusting 7 8.5
2020-Feb-24 13:42 264 4 gusting 7 8.3
2020-Feb-24 13:36 258 4 gusting 6 8.2
2020-Feb-24 13:30 257 3 gusting 5 8.0
2020-Feb-24 13:24 249 4 gusting 6 8.0
2020-Feb-24 13:18 256 4 gusting 7 7.8
2020-Feb-24 13:06 250 5 gusting 7 7.6
2020-Feb-24 13:00 262 5 gusting 7 7.5
2020-Feb-24 12:54 263 5 gusting 6 7.4
2020-Feb-24 12:48 265 4 gusting 5 7.2
2020-Feb-24 12:42 267 4 gusting 5 7.1
2020-Feb-24 12:36 267 3 gusting 4 7.0
2020-Feb-24 12:30 266 4 gusting 4 6.9
2020-Feb-24 12:24 267 4 gusting 5 6.8
2020-Feb-24 12:18 270 4 gusting 5 6.7
2020-Feb-24 12:12 269 4 gusting 5 6.7
2020-Feb-24 12:06 270 4 gusting 5 6.7
2020-Feb-24 12:00 266 4 gusting 5 6.7
2020-Feb-24 11:54 264 4 gusting 5 6.8
2020-Feb-24 11:48 255 4 gusting 6 6.8
2020-Feb-24 11:42 252 4 gusting 6 6.8
2020-Feb-24 11:36 254 5 gusting 7 6.9
2020-Feb-24 11:30 250 5 gusting 7 7.0
2020-Feb-24 11:24 252 5 gusting 7 7.0
2020-Feb-24 11:18 251 4 gusting 7 7.1
2020-Feb-24 11:12 250 5 gusting 7 7.1
2020-Feb-24 11:06 237 6 gusting 9 7.2
2020-Feb-24 11:00 232 6 gusting 9 7.2
2020-Feb-24 10:54 225 5 gusting 8 7.3
2020-Feb-24 10:48 229 6 gusting 9 7.4
2020-Feb-24 10:42 231 6 gusting 9 7.4
2020-Feb-24 10:36 233 7 gusting 10 7.4
2020-Feb-24 10:30 233 8 gusting 12 7.4
2020-Feb-24 10:24 232 8 gusting 11 7.3
2020-Feb-24 10:18 232 8 gusting 12 7.3
2020-Feb-24 10:12 232 7 gusting 11 7.2
2020-Feb-24 10:06 236 8 gusting 11 7.3
2020-Feb-24 10:00 233 8 gusting 11 7.3
2020-Feb-24 09:54 232 8 gusting 11 7.3
2020-Feb-24 09:48 231 8 gusting 11 7.3
2020-Feb-24 09:42 234 8 gusting 11 7.3
2020-Feb-24 09:36 231 9 gusting 13 7.3
2020-Feb-24 09:30 232 8 gusting 12 7.4
2020-Feb-24 09:24 229 7 gusting 11 7.3
2020-Feb-24 09:18 224 7 gusting 12 7.3
2020-Feb-24 09:12 222 7 gusting 11 7.3
2020-Feb-24 09:06 223 6 gusting 9 7.1
2020-Feb-24 09:00 222 6 gusting 8 7.1
2020-Feb-24 08:54 221 6 gusting 9 7.1
2020-Feb-24 08:48 221 6 gusting 9 7.1
2020-Feb-24 08:42 222 7 gusting 11 7.1
2020-Feb-24 08:36 223 7 gusting 10 7.0
2020-Feb-24 08:30 222 6 gusting 9 7.0
2020-Feb-24 08:24 221 6 gusting 11 7.1
2020-Feb-24 08:18 222 6 gusting 9 7.0
2020-Feb-24 08:12 223 6 gusting 11 7.1
2020-Feb-24 08:06 219 6 gusting 10 7.2
2020-Feb-24 08:00 224 7 gusting 11 7.3
2020-Feb-24 07:54 223 7 gusting 12 7.3
2020-Feb-24 07:48 223 7 gusting 12 7.4
2020-Feb-24 07:42 231 7 gusting 10 7.3
2020-Feb-24 07:36 231 6 gusting 9 7.2
2020-Feb-24 07:30 226 6 gusting 9 7.2
2020-Feb-24 07:24 228 5 gusting 8 7.2
2020-Feb-24 07:18 232 7 gusting 12 7.2
2020-Feb-24 07:12 231 7 gusting 11 7.2
2020-Feb-24 07:06 229 6 gusting 12 7.2
2020-Feb-24 07:00 235 8 gusting 12 7.3
2020-Feb-24 06:54 233 8 gusting 11 7.3
2020-Feb-24 06:48 233 7 gusting 12 7.3
2020-Feb-24 06:42 234 8 gusting 14 7.2
2020-Feb-24 06:36 229 7 gusting 10 7.2
2020-Feb-24 06:30 225 6 gusting 11 7.2
2020-Feb-24 06:24 224 7 gusting 11 7.2
2020-Feb-24 06:18 224 7 gusting 12 7.3
2020-Feb-24 06:12 223 8 gusting 12 7.3
2020-Feb-24 06:06 222 8 gusting 13 7.2
2020-Feb-24 06:00 224 7 gusting 13 7.2
2020-Feb-24 05:54 223 7 gusting 11 7.2
2020-Feb-24 05:48 223 7 gusting 13 7.3
2020-Feb-24 05:42 225 6 gusting 11 7.3
2020-Feb-24 05:36 223 7 gusting 11 7.3
2020-Feb-24 05:30 222 7 gusting 11 7.3
2020-Feb-24 05:24 224 7 gusting 12 7.3
2020-Feb-24 05:18 224 8 gusting 13 7.3
2020-Feb-24 05:12 220 8 gusting 15 7.4
2020-Feb-24 05:06 218 8 gusting 12 7.5
2020-Feb-24 05:00 222 8 gusting 12 7.3
2020-Feb-24 04:54 227 7 gusting 12 7.2
2020-Feb-24 04:48 235 7 gusting 11 7.1
2020-Feb-24 04:42 231 8 gusting 11 7.0
2020-Feb-24 04:36 234 8 gusting 12 6.9
2020-Feb-24 04:30 232 9 gusting 14 6.8
2020-Feb-24 04:24 232 9 gusting 15 6.8
2020-Feb-24 04:18 231 9 gusting 14 6.7
2020-Feb-24 04:12 225 8 gusting 11 6.7
2020-Feb-24 04:06 225 8 gusting 12 6.8
2020-Feb-24 04:00 224 8 gusting 13 6.8
2020-Feb-24 03:54 221 7 gusting 12 6.7
2020-Feb-24 03:48 225 7 gusting 12 6.6
2020-Feb-24 03:42 225 7 gusting 11 6.6
2020-Feb-24 03:36 221 7 gusting 11 6.5
2020-Feb-24 03:30 224 6 gusting 11 6.5
2020-Feb-24 03:24 231 6 gusting 11 6.4
2020-Feb-24 03:18 225 5 gusting 8 6.4
2020-Feb-24 03:12 226 6 gusting 10 6.4
2020-Feb-24 03:06 222 6 gusting 9 6.3
2020-Feb-24 03:00 218 6 gusting 11 6.3
2020-Feb-24 02:54 222 6 gusting 9 6.4
2020-Feb-24 02:48 220 7 gusting 13 6.4
2020-Feb-24 02:42 222 7 gusting 12 6.4
2020-Feb-24 02:36 216 7 gusting 12 6.3
2020-Feb-24 02:30 217 7 gusting 10 6.3
2020-Feb-24 02:24 215 7 gusting 11 6.3
2020-Feb-24 02:18 223 5 gusting 8 6.3
2020-Feb-24 02:12 225 7 gusting 10 6.3
2020-Feb-24 02:06 227 6 gusting 11 6.2
2020-Feb-24 02:00 226 5 gusting 8 6.3
2020-Feb-24 01:54 226 7 gusting 12 6.3
2020-Feb-24 01:48 222 6 gusting 11 6.3
2020-Feb-24 01:42 226 6 gusting 9 6.3
2020-Feb-24 01:36 226 7 gusting 10 6.3
2020-Feb-24 01:30 223 7 gusting 10 6.2
2020-Feb-24 01:24 226 6 gusting 9 6.3
2020-Feb-24 01:18 216 6 gusting 10 6.3
2020-Feb-24 01:12 203 6 gusting 11 6.3
2020-Feb-24 01:06 206 7 gusting 14 6.3
2020-Feb-24 01:00 204 7 gusting 11 6.3
2020-Feb-24 00:54 206 8 gusting 13 6.3
2020-Feb-24 00:48 207 7 gusting 11 6.3
2020-Feb-24 00:42 207 7 gusting 13 6.3
2020-Feb-24 00:36 205 9 gusting 13 6.3
2020-Feb-24 00:30 205 8 gusting 13 6.3
2020-Feb-24 00:24 202 8 gusting 13 6.2
2020-Feb-24 00:18 204 7 gusting 11 6.2
2020-Feb-24 00:12 204 7 gusting 12 6.2
2020-Feb-24 00:06 206 7 gusting 13 6.2
2020-Feb-24 00:00 209 6 gusting 11 6.2
2020-Feb-23 23:54 204 7 gusting 12 6.2
2020-Feb-23 23:48 207 7 gusting 12 6.2
2020-Feb-23 23:42 211 7 gusting 12 6.2
2020-Feb-23 23:36 211 7 gusting 12 6.2
2020-Feb-23 23:30 211 6 gusting 11 6.3
2020-Feb-23 23:24 211 6 gusting 12 6.3
2020-Feb-23 23:18 212 6 gusting 9 6.3
2020-Feb-23 23:12 205 6 gusting 11 6.4
2020-Feb-23 23:06 202 7 gusting 12 6.5
2020-Feb-23 23:00 205 6 gusting 11 6.7
2020-Feb-23 22:54 201 6 gusting 13 6.8
2020-Feb-23 22:48 202 6 gusting 11 7.0
2020-Feb-23 22:42 199 7 gusting 11 7.1
2020-Feb-23 22:36 198 6 gusting 9 7.3
2020-Feb-23 22:30 200 6 gusting 10 7.4
2020-Feb-23 22:24 203 6 gusting 10 7.5
2020-Feb-23 22:18 205 6 gusting 11 7.5
2020-Feb-23 22:12 204 5 gusting 9 7.6
2020-Feb-23 22:06 208 7 gusting 14 7.7
2020-Feb-23 22:00 209 7 gusting 11 7.8
2020-Feb-23 21:54 208 6 gusting 10 7.8
2020-Feb-23 21:48 200 6 gusting 9 7.8
2020-Feb-23 21:42 208 7 gusting 12 7.8
2020-Feb-23 21:36 210 8 gusting 13 7.9
2020-Feb-23 21:30 210 8 gusting 14 8.0
2020-Feb-23 21:24 202 9 gusting 14 8.0
2020-Feb-23 21:18 210 7 gusting 11 8.1
2020-Feb-23 21:12 205 7 gusting 11 8.1
2020-Feb-23 21:06 209 7 gusting 11 8.2
2020-Feb-23 21:00 207 7 gusting 13 8.2
2020-Feb-23 20:54 213 7 gusting 13 8.2
2020-Feb-23 20:48 205 8 gusting 13 8.1
2020-Feb-23 20:42 200 10 gusting 15 8.1
2020-Feb-23 20:36 196 10 gusting 16 8.1
2020-Feb-23 20:30 202 9 gusting 14 8.1
2020-Feb-23 20:24 205 8 gusting 14 8.2
2020-Feb-23 20:18 208 9 gusting 14 8.3
2020-Feb-23 20:12 206 8 gusting 14 8.4
2020-Feb-23 20:06 205 8 gusting 14 8.3
2020-Feb-23 20:00 203 7 gusting 15 8.3
2020-Feb-23 19:54 209 8 gusting 12 8.4
2020-Feb-23 19:48 190 7 gusting 13 8.6
2020-Feb-23 19:42 204 8 gusting 14 8.5
2020-Feb-23 19:36 207 9 gusting 14 8.6
2020-Feb-23 19:30 201 7 gusting 15 8.7
2020-Feb-23 19:24 206 8 gusting 14 8.7
2020-Feb-23 19:18 209 7 gusting 14 8.7
2020-Feb-23 19:12 201 7 gusting 13 8.8
2020-Feb-23 19:06 190 7 gusting 11 8.8
2020-Feb-23 19:00 202 8 gusting 13 8.6
2020-Feb-23 18:54 200 10 gusting 14 8.5
2020-Feb-23 18:48 199 10 gusting 14 8.5
2020-Feb-23 18:42 195 11 gusting 15 8.6
2020-Feb-23 18:36 196 10 gusting 15 8.6
2020-Feb-23 18:30 197 9 gusting 15 8.6
2020-Feb-23 18:24 200 10 gusting 14 8.6
2020-Feb-23 18:18 203 9 gusting 14 8.6
2020-Feb-23 18:12 201 9 gusting 13 8.7
2020-Feb-23 18:06 202 9 gusting 13 8.7
2020-Feb-23 18:00 198 9 gusting 13 8.8
2020-Feb-23 17:54 200 8 gusting 12 8.9
2020-Feb-23 17:48 198 9 gusting 12 8.8
2020-Feb-23 17:42 195 8 gusting 12 9.0
2020-Feb-23 17:36 195 8 gusting 11 8.8
2020-Feb-23 17:30 197 8 gusting 12 8.7
2020-Feb-23 17:24 196 9 gusting 12 8.9
2020-Feb-23 17:18 202 6 gusting 9 9.2
2020-Feb-23 17:12 203 7 gusting 10 9.0
2020-Feb-23 17:06 190 7 gusting 12 9.1
2020-Feb-23 17:00 198 7 gusting 10 9.1
2020-Feb-23 16:54 188 6 gusting 10 9.2
2020-Feb-23 16:48 192 6 gusting 9 9.1
2020-Feb-23 16:42 195 6 gusting 9 9.2
2020-Feb-23 16:36 194 5 gusting 9 9.5
2020-Feb-23 16:30 196 7 gusting 9 9.2
2020-Feb-23 16:24 197 6 gusting 8 9.3
2020-Feb-23 16:18 197 4 gusting 8 9.6
2020-Feb-23 16:12 217 4 gusting 7 9.6
2020-Feb-23 16:06 223 3 gusting 7 9.6
2020-Feb-23 16:00 228 3 gusting 6 9.5
2020-Feb-23 15:54 253 4 gusting 6 9.4
2020-Feb-23 15:48 243 4 gusting 7 9.4
2020-Feb-23 15:42 237 4 gusting 8 9.3
2020-Feb-23 15:36 289 2 gusting 6 9.3
2020-Feb-23 15:30 260 3 gusting 5 9.1
2020-Feb-23 15:24 255 3 gusting 6 8.9
2020-Feb-23 15:18 269 4 gusting 6 8.7
2020-Feb-23 15:12 267 4 gusting 5 8.5
2020-Feb-23 15:06 259 3 gusting 5 8.3
2020-Feb-23 15:00 259 4 gusting 6 8.1
2020-Feb-23 14:54 245 4 gusting 6 7.8
2020-Feb-23 14:48 262 4 gusting 6 7.6
2020-Feb-23 14:42 261 5 gusting 6 7.3
2020-Feb-23 14:36 263 5 gusting 7 7.1
2020-Feb-23 14:30 260 5 gusting 7 6.8
2020-Feb-23 14:24 257 5 gusting 7 6.6
2020-Feb-23 14:18 260 4 gusting 6 6.1
2020-Feb-23 14:12 264 4 gusting 6 5.7
2020-Feb-23 14:06 263 5 gusting 6 5.2
2020-Feb-23 14:00 266 4 gusting 7 4.9
2020-Feb-23 13:54 266 5 gusting 6 4.7
2020-Feb-23 13:48 267 4 gusting 6 4.4
2020-Feb-23 13:42 270 5 gusting 7 4.2
2020-Feb-23 13:36 270 5 gusting 7 3.9
2020-Feb-23 13:30 268 7 gusting 9 3.7
2020-Feb-23 13:24 266 6 gusting 7 3.7
2020-Feb-23 13:18 264 6 gusting 7 3.5
2020-Feb-23 13:12 266 6 gusting 7 3.4
2020-Feb-23 13:06 270 6 gusting 7 3.2
2020-Feb-23 13:00 266 6 gusting 7 2.9
2020-Feb-23 12:54 266 6 gusting 8 2.9
2020-Feb-23 12:48 266 6 gusting 8 2.6
2020-Feb-23 12:42 268 6 gusting 7 2.2
2020-Feb-23 12:36 268 6 gusting 7 1.8
2020-Feb-23 12:30 268 5 gusting 7 1.6
2020-Feb-23 12:24 268 5 gusting 7 1.6
2020-Feb-23 12:18 273 5 gusting 7 1.5
2020-Feb-23 12:12 271 5 gusting 6 1.5
2020-Feb-23 12:06 268 5 gusting 7 1.9
2020-Feb-23 12:00 270 6 gusting 9 1.9
2020-Feb-23 11:54 270 6 gusting 8 2.0
2020-Feb-23 11:48 268 6 gusting 8 2.5
2020-Feb-23 11:42 273 6 gusting 8 2.5
2020-Feb-23 11:36 279 6 gusting 8 2.5
2020-Feb-23 11:30 276 7 gusting 9 2.4
2020-Feb-23 11:24 274 6 gusting 9 2.4
2020-Feb-23 11:18 268 6 gusting 8 2.4
2020-Feb-23 11:12 268 5 gusting 8 2.2
2020-Feb-23 11:06 278 6 gusting 8 1.9
2020-Feb-23 11:00 272 5 gusting 6 1.9
2020-Feb-23 10:54 267 5 gusting 7 1.9
2020-Feb-23 10:48 267 4 gusting 6 1.8
2020-Feb-23 10:42 263 4 gusting 5 1.7
2020-Feb-23 10:36 260 4 gusting 5 1.7
2020-Feb-23 10:30 255 4 gusting 5 1.7
2020-Feb-23 10:24 246 4 gusting 5 1.7
2020-Feb-23 10:18 259 5 gusting 7 1.7
2020-Feb-23 10:12 263 5 gusting 7 1.7
2020-Feb-23 10:06 262 5 gusting 7 1.8
2020-Feb-23 10:00 266 6 gusting 7 1.8
2020-Feb-23 09:54 265 6 gusting 7 1.8
2020-Feb-23 09:48 262 6 gusting 7 1.8
2020-Feb-23 09:42 263 5 gusting 7 1.8
2020-Feb-23 09:36 266 5 gusting 7 1.8
2020-Feb-23 09:30 258 4 gusting 6 1.8
2020-Feb-23 09:24 252 4 gusting 5 1.8
2020-Feb-23 09:18 248 4 gusting 5 1.8
2020-Feb-23 09:12 249 5 gusting 6 1.9
2020-Feb-23 09:06 243 5 gusting 7 2.0
2020-Feb-23 09:00 244 6 gusting 9 2.1
2020-Feb-23 08:54 248 6 gusting 7 2.1
2020-Feb-23 08:48 246 6 gusting 9 2.2
2020-Feb-23 08:42 256 7 gusting 9 2.4
2020-Feb-23 08:36 261 7 gusting 10 2.3
2020-Feb-23 08:30 260 7 gusting 9 2.3
2020-Feb-23 08:24 260 7 gusting 9 2.2
2020-Feb-23 08:18 255 6 gusting 8 2.4
2020-Feb-23 08:12 254 7 gusting 11 2.3
2020-Feb-23 08:06 258 7 gusting 10 2.1
2020-Feb-23 08:00 251 7 gusting 8 2.3
2020-Feb-23 07:54 245 7 gusting 9 2.5
2020-Feb-23 07:48 252 7 gusting 9 2.5
2020-Feb-23 07:42 253 7 gusting 9 2.5
2020-Feb-23 07:36 252 7 gusting 9 2.7
2020-Feb-23 07:30 259 7 gusting 9 2.9
2020-Feb-23 07:24 260 7 gusting 10 3.0
2020-Feb-23 07:18 263 7 gusting 10 3.2
2020-Feb-23 07:12 263 7 gusting 11 3.2
2020-Feb-23 07:06 265 7 gusting 10 3.4
2020-Feb-23 07:00 266 7 gusting 10 3.6
2020-Feb-23 06:54 269 7 gusting 9 3.8
2020-Feb-23 06:48 279 8 gusting 10 3.8
2020-Feb-23 06:42 269 6 gusting 9 3.7
2020-Feb-23 06:36 268 6 gusting 8 3.7
2020-Feb-23 06:30 265 6 gusting 8 3.8
2020-Feb-23 06:24 261 5 gusting 7 3.8
2020-Feb-23 06:18 258 6 gusting 8 3.9
2020-Feb-23 06:12 261 6 gusting 9 3.9
2020-Feb-23 06:06 263 6 gusting 10 3.9
2020-Feb-23 06:00 262 7 gusting 10 3.9